createdAt,value
2022-10-05T00:01:49.778Z,4.15
2022-10-05T00:06:01.288Z,4.70
2022-10-05T00:10:17.853Z,4.60
2022-10-05T00:14:32.866Z,4.15
2022-10-05T00:18:53.252Z,4.75
2022-10-05T00:23:11.418Z,4.97
2022-10-05T00:27:26.522Z,4.60
2022-10-05T00:31:38.649Z,4.72
2022-10-05T00:35:50.229Z,4.65
2022-10-05T00:40:03.926Z,4.65
2022-10-05T00:44:39.804Z,4.80
2022-10-05T00:49:28.708Z,4.40
2022-10-05T00:53:50.600Z,4.38
2022-10-05T00:58:19.082Z,4.97
2022-10-05T01:02:47.587Z,4.85
2022-10-05T01:07:14.870Z,5.00
2022-10-05T01:11:52.501Z,4.75
2022-10-05T01:16:16.006Z,4.95
2022-10-05T01:20:49.193Z,4.70
2022-10-05T01:25:24.931Z,5.32
2022-10-05T01:29:45.412Z,4.97
2022-10-05T01:34:21.760Z,5.00
2022-10-05T01:38:48.126Z,5.15
2022-10-05T01:43:03.991Z,5.05
2022-10-05T01:47:42.351Z,5.35
2022-10-05T01:52:07.447Z,5.50
2022-10-05T01:56:38.880Z,6.07
2022-10-05T02:01:41.651Z,5.45
2022-10-05T02:05:59.540Z,5.07
2022-10-05T02:10:23.701Z,5.50
2022-10-05T02:14:41.299Z,5.65
2022-10-05T02:18:59.697Z,6.35
2022-10-05T02:23:17.822Z,5.85
2022-10-05T02:27:38.039Z,6.28
2022-10-05T02:31:57.421Z,6.63
2022-10-05T02:36:19.660Z,6.38
2022-10-05T02:40:58.404Z,6.15
2022-10-05T02:45:22.933Z,6.22
2022-10-05T02:50:03.396Z,7.10
2022-10-05T02:54:25.146Z,6.97
2022-10-05T02:58:59.104Z,6.30
2022-10-05T03:03:24.817Z,6.68
2022-10-05T03:07:55.397Z,6.70
2022-10-05T03:12:17.413Z,7.15
2022-10-05T03:16:54.605Z,7.07
2022-10-05T03:21:22.309Z,6.68
2022-10-05T03:25:50.685Z,7.32
2022-10-05T03:30:13.350Z,6.57
2022-10-05T03:34:53.846Z,7.40
2022-10-05T03:39:36.414Z,7.68
2022-10-05T03:44:16.161Z,7.57
2022-10-05T03:48:55.237Z,6.90
2022-10-05T03:53:33.381Z,6.82
2022-10-05T03:57:47.294Z,6.75
2022-10-05T04:02:10.955Z,7.35
2022-10-05T04:06:27.448Z,6.13
2022-10-05T04:10:45.424Z,6.35
2022-10-05T04:15:03.684Z,6.32
2022-10-05T04:19:44.211Z,6.72
2022-10-05T04:24:18.239Z,5.93
2022-10-05T04:28:54.176Z,6.82
2022-10-05T04:33:10.501Z,6.22
2022-10-05T04:37:35.683Z,6.75
2022-10-05T04:42:09.370Z,6.43
2022-10-05T04:46:40.809Z,6.72
2022-10-05T04:51:01.176Z,6.75
2022-10-05T04:55:27.938Z,7.03
2022-10-05T04:59:55.808Z,6.00
2022-10-05T05:04:38.036Z,6.15
2022-10-05T05:09:22.119Z,7.20
2022-10-05T05:13:59.647Z,6.35
2022-10-05T05:18:44.815Z,5.97
2022-10-05T05:23:17.748Z,6.22
2022-10-05T05:27:41.081Z,6.22
2022-10-05T05:32:08.530Z,5.90
2022-10-05T05:36:42.325Z,5.72
2022-10-05T05:41:03.111Z,6.20
2022-10-05T05:45:21.133Z,5.97
2022-10-05T05:49:51.271Z,6.45
2022-10-05T05:54:44.433Z,6.35
2022-10-05T05:59:10.207Z,6.07
2022-10-05T06:03:28.622Z,6.18
2022-10-05T06:07:41.571Z,5.72
2022-10-05T06:12:03.440Z,5.10
2022-10-05T06:16:27.808Z,5.35
2022-10-05T06:21:00.581Z,5.05
2022-10-05T06:25:12.159Z,5.22
2022-10-05T06:29:51.882Z,4.85
2022-10-05T06:34:33.526Z,4.70
2022-10-05T06:39:12.245Z,4.78
2022-10-05T06:43:45.994Z,4.40
2022-10-05T06:48:16.109Z,4.40
2022-10-05T06:53:35.736Z,3.95
2022-10-05T06:57:57.331Z,4.28
2022-10-05T07:02:39.016Z,3.78
2022-10-05T07:06:59.969Z,3.88
2022-10-05T07:11:33.811Z,3.90
2022-10-05T07:16:09.192Z,3.80
2022-10-05T07:20:48.873Z,3.92
2022-10-05T07:25:13.174Z,4.63
2022-10-05T07:29:47.983Z,4.10
2022-10-05T07:34:17.634Z,4.25
2022-10-05T07:38:41.957Z,4.50
2022-10-05T07:42:55.966Z,4.38
2022-10-05T07:47:30.744Z,4.15
2022-10-05T07:51:46.046Z,3.80
2022-10-05T07:56:06.395Z,4.32
2022-10-05T08:00:21.188Z,4.00
2022-10-05T08:05:03.177Z,4.40
2022-10-05T08:09:36.339Z,3.85
2022-10-05T08:14:10.421Z,3.60
2022-10-05T08:18:42.481Z,3.00
2022-10-05T08:23:02.685Z,2.88
2022-10-05T08:27:28.887Z,3.03
2022-10-05T08:31:44.497Z,3.13
2022-10-05T08:36:10.746Z,2.53
2022-10-05T08:40:34.386Z,2.85
2022-10-05T08:45:27.597Z,3.20
2022-10-05T08:50:16.883Z,3.00
2022-10-05T08:54:56.322Z,3.10
2022-10-05T08:59:19.956Z,3.38
2022-10-05T09:03:46.562Z,3.13
2022-10-05T09:08:39.991Z,2.95
2022-10-05T09:13:15.932Z,3.50
2022-10-05T09:17:52.411Z,3.10
2022-10-05T09:22:25.419Z,2.90
2022-10-05T09:27:07.747Z,2.85
2022-10-05T09:31:35.400Z,3.10
2022-10-05T09:36:05.187Z,3.20
2022-10-05T09:40:34.979Z,3.30
2022-10-05T09:45:21.582Z,2.97
2022-10-05T09:50:04.058Z,3.05
2022-10-05T09:54:45.847Z,3.03
2022-10-05T09:59:33.000Z,2.85
2022-10-05T10:04:17.837Z,2.83
2022-10-05T10:08:37.323Z,2.70
2022-10-05T10:13:30.473Z,2.72
2022-10-05T10:18:03.854Z,2.65
2022-10-05T10:22:50.118Z,2.65
2022-10-05T10:27:17.179Z,2.75
2022-10-05T10:31:50.944Z,2.60
2022-10-05T10:36:13.187Z,2.63
2022-10-05T10:40:48.964Z,2.33
2022-10-05T10:45:29.775Z,2.08
2022-10-05T10:49:53.505Z,2.13
2022-10-05T10:54:30.121Z,2.40
2022-10-05T10:59:19.101Z,2.50
2022-10-05T11:03:33.680Z,2.33
2022-10-05T11:07:48.230Z,2.25
2022-10-05T11:12:17.755Z,2.30
2022-10-05T11:16:39.906Z,2.00
2022-10-05T11:21:36.619Z,2.00
2022-10-05T11:26:01.891Z,2.00
2022-10-05T11:30:31.856Z,2.20
2022-10-05T11:34:59.718Z,2.38
2022-10-05T11:39:39.288Z,2.15
2022-10-05T11:44:07.221Z,2.10
2022-10-05T11:48:49.756Z,2.10
2022-10-05T11:53:10.242Z,2.22
2022-10-05T11:57:26.116Z,2.40
2022-10-05T12:01:52.463Z,2.03
2022-10-05T12:06:24.485Z,2.42
2022-10-05T12:11:21.674Z,2.30
2022-10-05T12:15:41.427Z,2.10
2022-10-05T12:20:06.387Z,2.40
2022-10-05T12:24:30.964Z,2.00
2022-10-05T12:28:49.696Z,2.20
2022-10-05T12:33:17.305Z,2.00
2022-10-05T12:38:08.157Z,1.92
2022-10-05T12:42:42.089Z,2.08
2022-10-05T12:47:06.059Z,2.33
2022-10-05T12:51:44.876Z,1.95
2022-10-05T12:56:16.945Z,2.00
2022-10-05T13:00:33.044Z,1.73
2022-10-05T13:04:55.788Z,1.98
2022-10-05T13:09:13.466Z,1.67
2022-10-05T13:13:35.550Z,1.55
2022-10-05T13:18:12.315Z,2.20
2022-10-05T13:22:47.550Z,1.67
2022-10-05T13:27:16.012Z,1.70
2022-10-05T13:31:29.917Z,1.85
2022-10-05T13:35:52.521Z,2.00
2022-10-05T13:40:28.496Z,1.60
2022-10-05T13:45:03.892Z,1.87
2022-10-05T13:49:29.361Z,2.20
2022-10-05T13:54:00.879Z,1.80
2022-10-05T13:58:39.186Z,2.00
2022-10-05T14:02:53.338Z,2.30
2022-10-05T14:07:38.336Z,2.00
2022-10-05T14:12:11.838Z,1.98
2022-10-05T14:16:25.331Z,1.75
2022-10-05T14:20:37.195Z,2.00
2022-10-05T14:25:13.861Z,2.00
2022-10-05T14:29:37.524Z,2.10
2022-10-05T14:33:49.054Z,1.88
2022-10-05T14:38:03.162Z,1.90
2022-10-05T14:42:18.428Z,1.90
2022-10-05T14:46:34.764Z,1.60
2022-10-05T14:50:54.890Z,1.67
2022-10-05T14:55:50.985Z,1.48
2022-10-05T15:00:18.780Z,1.55
2022-10-05T15:05:16.284Z,1.83
2022-10-05T15:10:02.542Z,1.60
2022-10-05T15:14:22.652Z,1.50
2022-10-05T15:19:00.365Z,1.60
2022-10-05T15:23:23.644Z,1.70
2022-10-05T15:27:58.401Z,1.63
2022-10-05T15:32:23.516Z,1.95
2022-10-05T15:36:59.139Z,2.05
2022-10-05T15:41:40.786Z,1.90
2022-10-05T15:46:11.215Z,1.90
2022-10-05T15:50:26.075Z,1.70
2022-10-05T15:54:59.404Z,1.77
2022-10-05T15:59:29.986Z,1.77
2022-10-05T16:03:52.105Z,1.50
2022-10-05T16:08:22.293Z,1.55
2022-10-05T16:12:52.311Z,1.67
2022-10-05T16:17:25.302Z,1.73
2022-10-05T16:21:46.851Z,1.60
2022-10-05T16:26:23.853Z,1.50
2022-10-05T16:31:02.303Z,1.58
2022-10-05T16:35:24.910Z,1.83
2022-10-05T16:40:05.253Z,1.60
2022-10-05T16:44:35.521Z,1.90
2022-10-05T16:49:01.888Z,1.80
2022-10-05T16:53:25.494Z,1.48
2022-10-05T16:57:43.046Z,1.70
2022-10-05T17:02:28.761Z,1.90
2022-10-05T17:06:49.241Z,2.80
2022-10-05T17:11:10.527Z,1.70
2022-10-05T17:15:33.081Z,1.58
2022-10-05T17:20:18.745Z,2.10
2022-10-05T17:24:55.883Z,1.75
2022-10-05T17:29:28.008Z,1.65
2022-10-05T17:34:30.816Z,1.80
2022-10-05T17:38:47.074Z,1.52
2022-10-05T17:43:16.933Z,1.70
2022-10-05T17:47:57.796Z,1.50
2022-10-05T17:52:40.243Z,1.70
2022-10-05T17:56:52.474Z,2.92
2022-10-05T18:01:13.227Z,4.32
2022-10-05T18:05:29.267Z,1.83
2022-10-05T18:09:57.937Z,2.33
2022-10-05T18:14:24.729Z,8.13
2022-10-05T18:18:54.684Z,4.43
2022-10-05T18:23:06.236Z,5.35
2022-10-05T18:27:55.882Z,4.32
2022-10-05T18:32:21.338Z,8.15
2022-10-05T18:37:00.488Z,3.25
2022-10-05T18:41:22.800Z,2.90
2022-10-05T18:45:58.361Z,5.50
2022-10-05T18:50:38.928Z,6.68
2022-10-05T18:55:13.160Z,8.10
2022-10-05T18:59:51.304Z,5.45
2022-10-05T19:04:34.356Z,8.02
2022-10-05T19:08:54.798Z,6.93
2022-10-05T19:13:21.612Z,6.85
2022-10-05T19:17:56.836Z,4.10
2022-10-05T19:22:17.368Z,2.78
2022-10-05T19:27:02.446Z,1.98
2022-10-05T19:31:29.834Z,1.75
2022-10-05T19:36:09.344Z,1.73
2022-10-05T19:40:26.885Z,1.92
2022-10-05T19:44:54.292Z,1.85
2022-10-05T19:49:09.464Z,1.77
2022-10-05T19:53:30.288Z,1.98
2022-10-05T19:57:58.065Z,2.08
2022-10-05T20:02:15.903Z,2.35
2022-10-05T20:06:29.414Z,2.10
2022-10-05T20:10:41.162Z,2.10
2022-10-05T20:15:26.466Z,2.10
2022-10-05T20:19:57.741Z,1.88
2022-10-05T20:24:15.587Z,2.15
2022-10-05T20:28:31.698Z,1.90
2022-10-05T20:33:14.570Z,1.88
2022-10-05T20:37:26.438Z,1.98
2022-10-05T20:41:38.009Z,2.30
2022-10-05T20:45:49.575Z,3.67
2022-10-05T20:50:05.441Z,1.00
2022-10-05T20:54:18.982Z,1.23
2022-10-05T20:58:30.832Z,0.70
2022-10-05T21:02:42.794Z,1.40
2022-10-05T21:06:54.407Z,0.88
2022-10-05T21:11:12.125Z,0.85
2022-10-05T21:15:23.690Z,0.88
2022-10-05T21:19:41.169Z,0.82
2022-10-05T21:23:52.905Z,0.75
2022-10-05T21:28:06.129Z,1.17
2022-10-05T21:32:17.698Z,1.15
2022-10-05T21:36:29.238Z,1.05
2022-10-05T21:40:43.248Z,1.30
2022-10-05T21:44:54.783Z,1.00
2022-10-05T21:49:07.275Z,1.20
2022-10-05T21:53:23.132Z,1.33
2022-10-05T21:57:35.547Z,1.50
2022-10-05T22:01:47.167Z,1.23
2022-10-05T22:05:58.762Z,1.10
2022-10-05T22:10:10.610Z,1.10
2022-10-05T22:14:22.545Z,1.33
2022-10-05T22:18:34.129Z,1.08
2022-10-05T22:22:45.686Z,1.20
2022-10-05T22:26:57.339Z,1.42
2022-10-05T22:31:10.584Z,1.30
2022-10-05T22:35:22.172Z,1.52
2022-10-05T22:39:33.771Z,1.40
2022-10-05T22:43:49.948Z,1.45
2022-10-05T22:48:01.605Z,1.58
2022-10-05T22:52:13.150Z,1.50
2022-10-05T22:56:24.706Z,1.20
2022-10-05T23:00:57.014Z,1.42
2022-10-05T23:05:09.182Z,1.80
2022-10-05T23:09:20.727Z,1.80
2022-10-05T23:13:33.354Z,1.90
2022-10-05T23:17:44.880Z,1.92
2022-10-05T23:21:56.480Z,1.60
2022-10-05T23:26:10.416Z,1.60
2022-10-05T23:30:22.105Z,1.60
2022-10-05T23:34:33.811Z,1.50
2022-10-05T23:38:46.025Z,1.67
2022-10-05T23:42:57.711Z,1.85
2022-10-05T23:47:09.245Z,1.67
2022-10-05T23:51:20.922Z,1.80
2022-10-05T23:55:32.662Z,1.90
2022-10-05T23:59:44.275Z,1.80
